createdAt,value
2018-12-26T00:02:39.247Z,1.54
2018-12-26T00:05:28.294Z,1.39
2018-12-26T00:08:18.784Z,1.43
2018-12-26T00:11:07.707Z,1.41
2018-12-26T00:13:56.601Z,1.41
2018-12-26T00:16:45.513Z,1.15
2018-12-26T00:19:25.335Z,1.28
2018-12-26T00:22:14.279Z,1.35
2018-12-26T00:25:03.214Z,1.45
2018-12-26T00:27:52.172Z,1.43
2018-12-26T00:30:41.063Z,-0.29
2018-12-26T00:33:30.224Z,1.29
2018-12-26T00:36:19.213Z,-0.45
2018-12-26T00:39:08.127Z,1.33
2018-12-26T00:42:16.068Z,-0.52
2018-12-26T00:45:24.709Z,1.27
2018-12-26T00:48:13.616Z,1.25
2018-12-26T00:51:02.564Z,1.27
2018-12-26T00:53:51.791Z,1.10
2018-12-26T00:56:40.675Z,0.72
2018-12-26T00:59:29.585Z,0.73
2018-12-26T01:02:18.516Z,0.75
2018-12-26T01:05:07.412Z,0.62
2018-12-26T01:07:56.337Z,0.53
2018-12-26T01:10:45.224Z,-1.09
2018-12-26T01:13:34.142Z,0.34
2018-12-26T01:16:23.046Z,-1.89
2018-12-26T01:19:04.763Z,-0.15
2018-12-26T01:21:53.696Z,-1.07
2018-12-26T01:24:42.589Z,-0.19
2018-12-26T01:27:31.505Z,-0.29
2018-12-26T01:30:20.416Z,-0.36
2018-12-26T01:33:09.342Z,-0.31
2018-12-26T01:35:58.320Z,-0.31
2018-12-26T01:38:47.241Z,-0.40
2018-12-26T01:41:36.155Z,-0.45
2018-12-26T01:44:25.093Z,-0.62
2018-12-26T01:47:13.993Z,-0.63
2018-12-26T01:50:02.928Z,-0.68
2018-12-26T01:53:10.859Z,-0.69
2018-12-26T01:58:54.318Z,-0.72
2018-12-26T02:01:43.222Z,-0.74
2018-12-26T02:04:32.149Z,-0.86
2018-12-26T02:07:40.087Z,-0.85
2018-12-26T02:10:28.990Z,-0.88
2018-12-26T02:13:17.926Z,-0.96
2018-12-26T02:16:06.830Z,-0.93
2018-12-26T02:18:55.741Z,-2.50
2018-12-26T02:21:37.978Z,-0.94
2018-12-26T02:24:26.896Z,-2.49
2018-12-26T02:27:15.799Z,-0.96
2018-12-26T02:30:25.649Z,-1.05
2018-12-26T02:33:14.554Z,-1.16
2018-12-26T02:36:03.497Z,-1.29
2018-12-26T02:38:52.394Z,-1.22
2018-12-26T02:41:41.311Z,-1.16
2018-12-26T02:44:49.259Z,-1.10
2018-12-26T02:47:38.218Z,-1.06
2018-12-26T02:50:27.128Z,-1.18
2018-12-26T02:53:16.052Z,-1.19
2018-12-26T02:56:04.978Z,-1.26
2018-12-26T02:58:53.907Z,-3.31
2018-12-26T03:01:43.163Z,-1.30
2018-12-26T03:04:32.098Z,-1.29
2018-12-26T03:07:21.024Z,-1.38
2018-12-26T03:10:09.943Z,-1.49
2018-12-26T03:12:58.902Z,-1.41
2018-12-26T03:15:47.889Z,-1.32
2018-12-26T03:18:36.821Z,-3.14
2018-12-26T03:21:18.328Z,-1.22
2018-12-26T03:24:07.234Z,-3.03
2018-12-26T03:26:56.741Z,-1.26
2018-12-26T03:29:46.811Z,-1.30
2018-12-26T03:32:35.748Z,-1.28
2018-12-26T03:35:24.655Z,-1.34
2018-12-26T03:38:13.595Z,-1.57
2018-12-26T03:41:02.500Z,-1.66
2018-12-26T03:43:51.499Z,-1.64
2018-12-26T03:46:40.486Z,-1.62
2018-12-26T03:49:29.442Z,-1.55
2018-12-26T03:52:18.353Z,-3.19
2018-12-26T03:55:07.397Z,-1.51
2018-12-26T03:57:56.321Z,-1.73
2018-12-26T04:00:45.235Z,-1.82
2018-12-26T04:03:34.165Z,-2.87
2018-12-26T04:06:23.146Z,-1.88
2018-12-26T04:09:12.075Z,-4.01
2018-12-26T04:12:01.081Z,-1.79
2018-12-26T04:14:50.055Z,-1.72
2018-12-26T04:17:39.016Z,-1.67
2018-12-26T04:20:27.925Z,-1.69
2018-12-26T04:23:09.552Z,-1.65
2018-12-26T04:29:26.895Z,-1.56
2018-12-26T04:32:15.808Z,-1.65
2018-12-26T04:38:19.686Z,-2.07
2018-12-26T04:41:08.609Z,-2.14
2018-12-26T04:43:57.537Z,-2.08
2018-12-26T04:46:46.462Z,-2.08
2018-12-26T04:49:35.384Z,-2.02
2018-12-26T04:52:43.324Z,-1.99
2018-12-26T04:55:32.244Z,-2.02
2018-12-26T04:58:21.186Z,-2.10
2018-12-26T05:01:10.088Z,-2.19
2018-12-26T05:03:59.026Z,-2.18
2018-12-26T05:06:47.955Z,-3.85
2018-12-26T05:09:36.863Z,-2.08
2018-12-26T05:12:25.810Z,-2.08
2018-12-26T05:15:14.743Z,-2.13
2018-12-26T05:18:03.677Z,-2.06
2018-12-26T05:20:52.596Z,-1.94
2018-12-26T05:23:34.305Z,-1.87
2018-12-26T05:26:23.235Z,-1.88
2018-12-26T05:29:31.168Z,-1.82
2018-12-26T05:32:20.098Z,-3.85
2018-12-26T05:35:09.016Z,-2.75
2018-12-26T05:37:57.941Z,-1.82
2018-12-26T05:40:46.858Z,-1.75
2018-12-26T05:43:35.801Z,-1.82
2018-12-26T05:46:24.698Z,-1.77
2018-12-26T05:49:13.637Z,-1.73
2018-12-26T05:52:02.544Z,-1.76
2018-12-26T05:54:51.479Z,-1.75
2018-12-26T05:57:42.882Z,-1.73
2018-12-26T06:00:31.055Z,-1.66
2018-12-26T06:03:19.971Z,-2.95
2018-12-26T06:06:08.897Z,-2.87
2018-12-26T06:08:57.817Z,-1.68
2018-12-26T06:11:46.747Z,-3.53
2018-12-26T06:14:35.652Z,-1.61
2018-12-26T06:17:24.576Z,-1.49
2018-12-26T06:20:13.483Z,-1.42
2018-12-26T06:22:55.195Z,-1.37
2018-12-26T06:25:44.121Z,-1.33
2018-12-26T06:28:33.031Z,-1.22
2018-12-26T06:31:21.959Z,-1.18
2018-12-26T06:34:10.865Z,-1.72
2018-12-26T06:36:59.793Z,-1.12
2018-12-26T06:39:48.699Z,-1.07
2018-12-26T06:42:37.630Z,-2.16
2018-12-26T06:45:26.546Z,-0.93
2018-12-26T06:48:15.463Z,-1.12
2018-12-26T06:51:04.392Z,-0.85
2018-12-26T06:53:53.402Z,-0.80
2018-12-26T06:56:42.334Z,-1.00
2018-12-26T06:59:31.264Z,-0.67
2018-12-26T07:02:20.180Z,-2.40
2018-12-26T07:05:09.126Z,-0.68
2018-12-26T07:07:58.031Z,-0.54
2018-12-26T07:10:46.962Z,-0.62
2018-12-26T07:13:35.876Z,-0.83
2018-12-26T07:16:24.781Z,-0.96
2018-12-26T07:19:13.725Z,-1.04
2018-12-26T07:22:02.637Z,-1.03
2018-12-26T07:27:45.542Z,-0.79
2018-12-26T07:30:34.463Z,-0.62
2018-12-26T07:33:23.376Z,-0.51
2018-12-26T07:36:12.291Z,-2.53
2018-12-26T07:39:01.225Z,-0.32
2018-12-26T07:41:50.125Z,-2.25
2018-12-26T07:44:39.047Z,-0.28
2018-12-26T07:47:27.976Z,-1.95
2018-12-26T07:50:16.927Z,-0.12
2018-12-26T07:53:05.888Z,0.08
2018-12-26T07:55:54.818Z,-0.10
2018-12-26T07:58:43.719Z,-0.02
2018-12-26T08:01:51.654Z,0.10
2018-12-26T08:04:40.565Z,0.14
2018-12-26T08:07:29.458Z,0.12
2018-12-26T08:10:18.390Z,0.21
2018-12-26T08:13:07.286Z,0.27
2018-12-26T08:16:15.227Z,0.31
2018-12-26T08:19:04.142Z,0.38
2018-12-26T08:21:53.102Z,-1.15
2018-12-26T08:24:35.141Z,0.55
2018-12-26T08:27:24.051Z,0.65
2018-12-26T08:30:12.952Z,0.16
2018-12-26T08:33:01.889Z,0.73
2018-12-26T08:35:50.789Z,0.82
2018-12-26T08:38:39.726Z,0.89
2018-12-26T08:41:28.627Z,0.85
2018-12-26T08:44:17.565Z,0.41
2018-12-26T08:47:06.488Z,0.74
2018-12-26T08:49:55.397Z,0.85
2018-12-26T08:52:44.319Z,0.91
2018-12-26T08:55:33.222Z,0.38
2018-12-26T09:01:16.116Z,1.07
2018-12-26T09:04:05.024Z,-0.78
2018-12-26T09:06:53.943Z,1.04
2018-12-26T09:09:42.852Z,1.07
2018-12-26T09:15:39.522Z,1.07
2018-12-26T09:18:28.422Z,0.97
2018-12-26T09:21:17.447Z,0.89
2018-12-26T09:23:59.583Z,0.85
2018-12-26T09:26:48.501Z,0.40
2018-12-26T09:29:37.411Z,1.06
2018-12-26T09:32:26.318Z,1.20
2018-12-26T09:35:15.255Z,1.19
2018-12-26T09:38:04.161Z,1.18
2018-12-26T09:40:53.083Z,1.01
2018-12-26T09:43:41.982Z,1.15
2018-12-26T09:46:30.896Z,0.06
2018-12-26T09:49:19.794Z,1.18
2018-12-26T09:52:08.734Z,1.23
2018-12-26T09:54:57.623Z,1.34
2018-12-26T09:57:46.535Z,1.22
2018-12-26T10:00:35.433Z,1.50
2018-12-26T10:03:24.351Z,-0.18
2018-12-26T10:06:13.257Z,1.62
2018-12-26T10:09:02.172Z,1.63
2018-12-26T10:11:51.064Z,1.72
2018-12-26T10:14:39.983Z,-0.01
2018-12-26T10:17:28.881Z,1.61
2018-12-26T10:20:17.805Z,1.65
2018-12-26T10:23:06.700Z,1.56
2018-12-26T10:25:48.412Z,1.59
2018-12-26T10:28:37.315Z,1.55
2018-12-26T10:31:26.229Z,1.61
2018-12-26T10:34:15.131Z,1.68
2018-12-26T10:37:04.052Z,1.77
2018-12-26T10:39:52.978Z,1.73
2018-12-26T10:42:41.879Z,1.77
2018-12-26T10:45:30.900Z,1.94
2018-12-26T10:48:19.802Z,1.16
2018-12-26T10:51:08.705Z,0.28
2018-12-26T10:53:57.597Z,1.92
2018-12-26T10:56:46.540Z,1.91
2018-12-26T10:59:35.474Z,2.02
2018-12-26T11:02:24.380Z,0.14
2018-12-26T11:05:13.299Z,2.11
2018-12-26T11:08:02.198Z,1.41
2018-12-26T11:10:51.094Z,2.11
2018-12-26T11:13:40.018Z,0.58
2018-12-26T11:16:28.919Z,2.20
2018-12-26T11:19:18.082Z,2.32
2018-12-26T11:22:07.005Z,2.39
2018-12-26T11:24:48.781Z,2.33
2018-12-26T11:27:37.694Z,2.35
2018-12-26T11:30:26.602Z,2.29
2018-12-26T11:33:15.540Z,1.64
2018-12-26T11:36:04.424Z,2.32
2018-12-26T11:38:53.347Z,2.44
2018-12-26T11:41:42.252Z,1.53
2018-12-26T11:44:31.162Z,2.51
2018-12-26T11:47:20.061Z,1.14
2018-12-26T11:50:09.061Z,2.63
2018-12-26T11:52:57.958Z,2.69
2018-12-26T11:55:46.906Z,2.74
2018-12-26T11:58:35.818Z,2.81
2018-12-26T12:01:24.827Z,2.64
2018-12-26T12:04:13.736Z,1.07
2018-12-26T12:07:02.652Z,2.77
2018-12-26T12:09:51.581Z,2.75
2018-12-26T12:12:40.489Z,2.82
2018-12-26T12:15:20.428Z,1.94
2018-12-26T12:18:09.417Z,2.98
2018-12-26T12:20:58.318Z,2.77
2018-12-26T12:23:47.238Z,2.97
2018-12-26T12:26:28.695Z,3.04
2018-12-26T12:29:17.609Z,2.22
2018-12-26T12:32:06.533Z,3.25
2018-12-26T12:34:55.448Z,3.35
2018-12-26T12:37:44.343Z,3.33
2018-12-26T12:40:52.349Z,3.17
2018-12-26T12:43:41.254Z,3.27
2018-12-26T12:46:49.253Z,3.31
2018-12-26T12:49:38.172Z,3.35
2018-12-26T12:52:27.088Z,3.33
2018-12-26T12:55:15.973Z,3.36
2018-12-26T12:58:04.967Z,3.19
2018-12-26T13:00:53.861Z,3.29
2018-12-26T13:06:37.392Z,3.30
2018-12-26T13:09:26.285Z,3.37
2018-12-26T13:12:15.198Z,1.66
2018-12-26T13:18:32.525Z,3.83
2018-12-26T13:21:21.417Z,3.80
2018-12-26T13:24:03.491Z,3.84
2018-12-26T13:30:00.218Z,3.77
2018-12-26T13:32:49.144Z,1.99
2018-12-26T13:35:38.062Z,3.80
2018-12-26T13:38:26.949Z,3.87
2018-12-26T13:44:15.240Z,3.85
2018-12-26T13:50:38.119Z,4.01
2018-12-26T13:53:26.911Z,3.82
2018-12-26T13:56:15.732Z,3.82
2018-12-26T13:59:04.527Z,3.45
2018-12-26T14:01:53.345Z,3.20
2018-12-26T14:04:42.151Z,3.52
2018-12-26T14:07:30.980Z,3.54
2018-12-26T14:10:19.780Z,1.77
2018-12-26T14:13:08.614Z,1.64
2018-12-26T14:15:57.472Z,3.24
2018-12-26T14:18:46.285Z,2.99
2018-12-26T14:21:35.090Z,3.01
2018-12-26T14:24:16.685Z,3.07
2018-12-26T14:27:05.472Z,3.03
2018-12-26T14:29:54.304Z,3.08
2018-12-26T14:32:43.118Z,2.97
2018-12-26T14:35:50.945Z,3.00
2018-12-26T14:38:39.740Z,1.24
2018-12-26T14:41:28.558Z,2.40
2018-12-26T14:44:17.345Z,2.91
2018-12-26T14:47:25.183Z,3.01
2018-12-26T14:50:14.253Z,3.11
2018-12-26T14:53:03.066Z,3.22
2018-12-26T14:55:51.871Z,3.33
2018-12-26T14:58:40.662Z,3.36
2018-12-26T15:01:29.483Z,1.89
2018-12-26T15:04:18.264Z,1.92
2018-12-26T15:06:47.731Z,3.38
2018-12-26T15:09:57.461Z,3.41
2018-12-26T15:12:46.287Z,2.83
2018-12-26T15:15:28.501Z,3.39
2018-12-26T15:18:17.452Z,3.39
2018-12-26T15:21:06.492Z,3.37
2018-12-26T15:23:48.354Z,3.40
2018-12-26T15:26:37.149Z,2.31
2018-12-26T15:29:25.960Z,1.54
2018-12-26T15:32:14.754Z,3.29
2018-12-26T15:35:03.940Z,3.28
2018-12-26T15:37:52.730Z,1.51
2018-12-26T15:40:41.537Z,1.78
2018-12-26T15:43:30.619Z,3.14
2018-12-26T15:46:19.430Z,3.13
2018-12-26T15:49:08.227Z,3.01
2018-12-26T15:51:57.061Z,3.16
2018-12-26T15:54:45.861Z,3.23
2018-12-26T15:57:35.013Z,3.27
2018-12-26T16:00:23.801Z,3.05
2018-12-26T16:03:12.628Z,1.61
2018-12-26T16:06:01.451Z,3.24
2018-12-26T16:08:50.343Z,3.26
2018-12-26T16:11:39.142Z,2.49
2018-12-26T16:14:27.917Z,2.25
2018-12-26T16:17:16.731Z,3.28
2018-12-26T16:20:26.440Z,3.23
2018-12-26T16:23:15.269Z,1.55
2018-12-26T16:25:56.938Z,3.20
2018-12-26T16:28:45.747Z,3.17
2018-12-26T16:31:34.632Z,3.06
2018-12-26T16:34:23.440Z,3.03
2018-12-26T16:37:12.228Z,3.07
2018-12-26T16:40:01.044Z,3.06
2018-12-26T16:42:49.837Z,3.05
2018-12-26T16:45:38.640Z,3.09
2018-12-26T16:48:27.439Z,3.10
2018-12-26T16:51:16.242Z,3.00
2018-12-26T16:54:05.023Z,2.98
2018-12-26T16:56:53.843Z,1.19
2018-12-26T16:59:42.632Z,2.78
2018-12-26T17:02:31.437Z,2.31
2018-12-26T17:05:20.285Z,2.81
2018-12-26T17:11:37.452Z,2.90
2018-12-26T17:14:26.264Z,1.51
2018-12-26T17:17:15.055Z,1.12
2018-12-26T17:23:33.634Z,1.12
2018-12-26T17:26:15.172Z,2.65
2018-12-26T17:29:03.995Z,2.63
2018-12-26T17:31:52.806Z,2.57
2018-12-26T17:34:41.606Z,2.52
2018-12-26T17:37:30.427Z,2.47
2018-12-26T17:40:19.283Z,2.47
2018-12-26T17:43:08.047Z,2.41
2018-12-26T17:45:56.852Z,0.82
2018-12-26T17:48:45.653Z,2.49
2018-12-26T17:51:34.474Z,2.38
2018-12-26T17:54:44.235Z,2.30
2018-12-26T17:57:33.047Z,0.51
2018-12-26T18:03:31.406Z,2.06
2018-12-26T18:06:20.233Z,2.01
2018-12-26T18:09:09.098Z,2.07
2018-12-26T18:12:11.177Z,2.00
2018-12-26T18:14:48.459Z,1.96
2018-12-26T18:17:37.261Z,1.93
2018-12-26T18:20:26.089Z,-0.01
2018-12-26T18:23:14.896Z,1.74
2018-12-26T18:25:56.761Z,1.78
2018-12-26T18:28:45.564Z,1.83
2018-12-26T18:31:34.476Z,1.81
2018-12-26T18:34:24.994Z,1.73
2018-12-26T18:37:13.829Z,1.79
2018-12-26T18:40:02.619Z,1.70
2018-12-26T18:42:51.423Z,0.47
2018-12-26T18:45:40.237Z,1.57
2018-12-26T18:48:29.035Z,1.56
2018-12-26T18:51:17.879Z,1.80
2018-12-26T18:54:06.676Z,1.78
2018-12-26T18:56:55.491Z,0.64
2018-12-26T18:59:44.361Z,-0.03
2018-12-26T19:02:33.145Z,1.00
2018-12-26T19:05:21.954Z,1.80
2018-12-26T19:08:10.750Z,0.31
2018-12-26T19:10:59.564Z,-0.08
2018-12-26T19:13:48.376Z,1.77
2018-12-26T19:16:37.213Z,1.72
2018-12-26T19:19:26.035Z,-0.07
2018-12-26T19:22:14.847Z,1.13
2018-12-26T19:25:03.818Z,1.86
2018-12-26T19:27:45.079Z,1.19
2018-12-26T19:30:33.894Z,1.45
2018-12-26T19:33:22.723Z,2.00
2018-12-26T19:36:11.519Z,2.03
2018-12-26T19:39:00.335Z,1.97
2018-12-26T19:41:49.161Z,1.95
2018-12-26T19:44:37.980Z,1.96
2018-12-26T19:47:26.778Z,0.28
2018-12-26T19:50:15.626Z,1.93
2018-12-26T19:53:04.518Z,0.99
2018-12-26T19:59:06.919Z,0.81
2018-12-26T20:01:56.073Z,0.13
2018-12-26T20:04:44.944Z,0.26
2018-12-26T20:07:34.189Z,1.16
2018-12-26T20:10:23.553Z,1.67
2018-12-26T20:16:39.620Z,1.66
2018-12-26T20:19:28.736Z,0.96
2018-12-26T20:22:18.110Z,1.60
2018-12-26T20:25:07.231Z,1.53
2018-12-26T20:27:47.132Z,1.44
2018-12-26T20:33:31.388Z,1.53
2018-12-26T20:36:20.793Z,0.71
2018-12-26T20:41:30.505Z,1.54
2018-12-26T20:51:03.894Z,1.45
2018-12-26T21:00:36.933Z,1.57
2018-12-26T21:03:45.029Z,-0.58
2018-12-26T21:16:12.554Z,-0.12
2018-12-26T21:19:21.295Z,1.52
2018-12-26T21:22:05.574Z,0.33
2018-12-26T21:24:54.910Z,1.47
2018-12-26T21:27:36.845Z,-0.50
2018-12-26T21:30:25.940Z,1.42
2018-12-26T21:33:14.867Z,0.36
2018-12-26T21:36:03.754Z,1.27
2018-12-26T21:38:52.595Z,-0.49
2018-12-26T21:41:41.413Z,1.35
2018-12-26T21:44:30.233Z,1.12
2018-12-26T21:47:19.043Z,-0.18
2018-12-26T21:50:28.817Z,1.14
2018-12-26T21:53:17.643Z,1.10
2018-12-26T21:56:06.511Z,1.08
2018-12-26T21:58:55.352Z,1.12
2018-12-26T22:01:44.139Z,1.03
2018-12-26T22:04:32.952Z,0.47
2018-12-26T22:07:22.051Z,1.06
2018-12-26T22:10:10.948Z,0.50
2018-12-26T22:12:59.739Z,1.00
2018-12-26T22:15:48.554Z,0.97
2018-12-26T22:18:37.352Z,0.90
2018-12-26T22:21:26.170Z,0.84
2018-12-26T22:24:14.973Z,-0.50
2018-12-26T22:26:56.382Z,-1.24
2018-12-26T22:29:45.180Z,0.64
2018-12-26T22:32:33.992Z,0.75
2018-12-26T22:35:22.785Z,0.76
2018-12-26T22:38:11.631Z,0.76
2018-12-26T22:41:00.442Z,0.83
2018-12-26T22:43:49.279Z,0.77
2018-12-26T22:46:38.079Z,-1.26
2018-12-26T22:49:26.915Z,0.85
2018-12-26T22:52:15.727Z,0.82
2018-12-26T22:58:19.955Z,0.86
2018-12-26T23:01:08.778Z,0.90
2018-12-26T23:03:57.600Z,0.90
2018-12-26T23:06:46.408Z,0.86
2018-12-26T23:09:35.217Z,0.81
2018-12-26T23:12:24.079Z,-1.07
2018-12-26T23:18:07.875Z,0.91
2018-12-26T23:20:56.707Z,0.89
2018-12-26T23:23:38.058Z,0.91
2018-12-26T23:29:34.661Z,0.93
2018-12-26T23:32:23.497Z,0.73
2018-12-26T23:35:31.477Z,0.85
2018-12-26T23:47:36.678Z,0.60
2018-12-26T23:50:44.619Z,-1.40
2018-12-26T23:53:33.498Z,0.72
2018-12-26T23:56:22.419Z,-0.62
